sensor_id;sensor_type;location;lat;lon;timestamp;P1;durP1;ratioP1;P2;durP2;ratioP2
13566;SDS011;6855;48.112;11.298;2022-11-11T00:00:23;7.73;;;2.50;;
13566;SDS011;6855;48.112;11.298;2022-11-11T00:02:53;3.17;;;2.10;;
13566;SDS011;6855;48.112;11.298;2022-11-11T00:05:20;6.87;;;2.40;;
13566;SDS011;6855;48.112;11.298;2022-11-11T00:07:48;5.23;;;2.30;;
13566;SDS011;6855;48.112;11.298;2022-11-11T00:10:15;5.03;;;2.67;;
13566;SDS011;6855;48.112;11.298;2022-11-11T00:12:42;2.70;;;1.73;;
13566;SDS011;6855;48.112;11.298;2022-11-11T00:15:09;3.97;;;2.27;;
13566;SDS011;6855;48.112;11.298;2022-11-11T00:17:36;5.40;;;2.50;;
13566;SDS011;6855;48.112;11.298;2022-11-11T00:20:23;5.50;;;2.83;;
13566;SDS011;6855;48.112;11.298;2022-11-11T00:23:08;3.33;;;2.40;;
13566;SDS011;6855;48.112;11.298;2022-11-11T00:25:58;5.17;;;2.50;;
13566;SDS011;6855;48.112;11.298;2022-11-11T00:28:26;3.63;;;2.70;;
13566;SDS011;6855;48.112;11.298;2022-11-11T00:30:59;5.90;;;3.73;;
13566;SDS011;6855;48.112;11.298;2022-11-11T00:33:27;4.93;;;3.50;;
13566;SDS011;6855;48.112;11.298;2022-11-11T00:35:55;8.83;;;4.17;;
13566;SDS011;6855;48.112;11.298;2022-11-11T00:38:22;7.60;;;4.20;;
13566;SDS011;6855;48.112;11.298;2022-11-11T00:41:07;7.03;;;3.70;;
13566;SDS011;6855;48.112;11.298;2022-11-11T00:43:35;10.03;;;4.57;;
13566;SDS011;6855;48.112;11.298;2022-11-11T00:46:02;15.53;;;4.50;;
13566;SDS011;6855;48.112;11.298;2022-11-11T00:48:47;10.27;;;5.17;;
13566;SDS011;6855;48.112;11.298;2022-11-11T00:51:33;9.43;;;4.57;;
13566;SDS011;6855;48.112;11.298;2022-11-11T00:54:00;7.77;;;3.77;;
13566;SDS011;6855;48.112;11.298;2022-11-11T00:56:27;9.13;;;4.70;;
13566;SDS011;6855;48.112;11.298;2022-11-11T00:58:55;11.33;;;5.13;;
13566;SDS011;6855;48.112;11.298;2022-11-11T01:01:22;6.73;;;3.13;;
13566;SDS011;6855;48.112;11.298;2022-11-11T01:03:49;7.77;;;3.40;;
13566;SDS011;6855;48.112;11.298;2022-11-11T01:06:16;5.97;;;3.33;;
13566;SDS011;6855;48.112;11.298;2022-11-11T01:08:45;3.60;;;2.73;;
13566;SDS011;6855;48.112;11.298;2022-11-11T01:11:12;3.33;;;2.37;;
13566;SDS011;6855;48.112;11.298;2022-11-11T01:13:40;10.63;;;2.63;;
13566;SDS011;6855;48.112;11.298;2022-11-11T01:16:08;2.60;;;1.97;;
13566;SDS011;6855;48.112;11.298;2022-11-11T01:18:36;3.33;;;2.40;;
13566;SDS011;6855;48.112;11.298;2022-11-11T01:21:04;3.83;;;2.50;;
13566;SDS011;6855;48.112;11.298;2022-11-11T01:23:32;3.20;;;2.53;;
13566;SDS011;6855;48.112;11.298;2022-11-11T01:26:01;4.10;;;2.73;;
13566;SDS011;6855;48.112;11.298;2022-11-11T01:28:29;4.07;;;2.60;;
13566;SDS011;6855;48.112;11.298;2022-11-11T01:31:00;2.63;;;2.40;;
13566;SDS011;6855;48.112;11.298;2022-11-11T01:33:27;5.43;;;2.53;;
13566;SDS011;6855;48.112;11.298;2022-11-11T01:35:54;4.67;;;2.93;;
13566;SDS011;6855;48.112;11.298;2022-11-11T01:38:22;3.87;;;2.40;;
13566;SDS011;6855;48.112;11.298;2022-11-11T01:40:49;5.73;;;2.23;;
13566;SDS011;6855;48.112;11.298;2022-11-11T01:43:21;3.90;;;2.80;;
13566;SDS011;6855;48.112;11.298;2022-11-11T01:45:53;4.70;;;2.80;;
13566;SDS011;6855;48.112;11.298;2022-11-11T01:48:24;3.60;;;2.50;;
13566;SDS011;6855;48.112;11.298;2022-11-11T01:51:11;3.97;;;2.90;;
13566;SDS011;6855;48.112;11.298;2022-11-11T01:53:41;7.37;;;3.13;;
13566;SDS011;6855;48.112;11.298;2022-11-11T01:56:08;4.90;;;2.70;;
13566;SDS011;6855;48.112;11.298;2022-11-11T01:58:37;4.40;;;2.80;;
13566;SDS011;6855;48.112;11.298;2022-11-11T02:01:04;5.63;;;2.80;;
13566;SDS011;6855;48.112;11.298;2022-11-11T02:03:32;5.80;;;3.00;;
13566;SDS011;6855;48.112;11.298;2022-11-11T02:06:01;7.40;;;3.97;;
13566;SDS011;6855;48.112;11.298;2022-11-11T02:08:28;15.33;;;3.90;;
13566;SDS011;6855;48.112;11.298;2022-11-11T02:10:58;9.60;;;4.27;;
13566;SDS011;6855;48.112;11.298;2022-11-11T02:13:26;6.87;;;3.53;;
13566;SDS011;6855;48.112;11.298;2022-11-11T02:16:12;9.23;;;3.63;;
13566;SDS011;6855;48.112;11.298;2022-11-11T02:18:40;8.53;;;3.50;;
13566;SDS011;6855;48.112;11.298;2022-11-11T02:21:08;8.13;;;4.77;;
13566;SDS011;6855;48.112;11.298;2022-11-11T02:23:36;6.03;;;3.60;;
13566;SDS011;6855;48.112;11.298;2022-11-11T02:26:06;9.60;;;3.43;;
13566;SDS011;6855;48.112;11.298;2022-11-11T02:28:35;5.50;;;3.70;;
13566;SDS011;6855;48.112;11.298;2022-11-11T02:31:03;6.97;;;4.07;;
13566;SDS011;6855;48.112;11.298;2022-11-11T02:33:30;10.87;;;3.90;;
13566;SDS011;6855;48.112;11.298;2022-11-11T02:35:57;7.63;;;3.83;;
13566;SDS011;6855;48.112;11.298;2022-11-11T02:38:25;7.60;;;3.70;;
13566;SDS011;6855;48.112;11.298;2022-11-11T02:40:52;16.33;;;4.27;;
13566;SDS011;6855;48.112;11.298;2022-11-11T02:43:39;10.60;;;4.10;;
13566;SDS011;6855;48.112;11.298;2022-11-11T02:46:06;8.30;;;3.70;;
13566;SDS011;6855;48.112;11.298;2022-11-11T02:48:33;7.47;;;4.13;;
13566;SDS011;6855;48.112;11.298;2022-11-11T02:51:00;6.40;;;3.90;;
13566;SDS011;6855;48.112;11.298;2022-11-11T02:53:28;6.67;;;3.97;;
13566;SDS011;6855;48.112;11.298;2022-11-11T02:55:55;7.37;;;3.90;;
13566;SDS011;6855;48.112;11.298;2022-11-11T02:58:22;6.47;;;3.97;;
13566;SDS011;6855;48.112;11.298;2022-11-11T03:00:51;10.77;;;4.07;;
13566;SDS011;6855;48.112;11.298;2022-11-11T03:03:18;7.17;;;3.47;;
13566;SDS011;6855;48.112;11.298;2022-11-11T03:05:45;6.90;;;4.10;;
13566;SDS011;6855;48.112;11.298;2022-11-11T03:08:13;8.30;;;4.20;;
13566;SDS011;6855;48.112;11.298;2022-11-11T03:10:40;6.20;;;3.60;;
13566;SDS011;6855;48.112;11.298;2022-11-11T03:13:07;12.30;;;3.47;;
13566;SDS011;6855;48.112;11.298;2022-11-11T03:15:34;6.23;;;4.00;;
13566;SDS011;6855;48.112;11.298;2022-11-11T03:18:02;9.50;;;3.57;;
13566;SDS011;6855;48.112;11.298;2022-11-11T03:20:29;6.47;;;3.97;;
13566;SDS011;6855;48.112;11.298;2022-11-11T03:23:14;7.03;;;3.70;;
13566;SDS011;6855;48.112;11.298;2022-11-11T03:25:42;7.43;;;3.67;;
13566;SDS011;6855;48.112;11.298;2022-11-11T03:28:11;7.20;;;3.23;;
13566;SDS011;6855;48.112;11.298;2022-11-11T03:30:38;10.43;;;3.73;;
13566;SDS011;6855;48.112;11.298;2022-11-11T03:33:07;8.57;;;4.07;;
13566;SDS011;6855;48.112;11.298;2022-11-11T03:35:35;5.90;;;3.87;;
13566;SDS011;6855;48.112;11.298;2022-11-11T03:38:02;6.27;;;2.90;;
13566;SDS011;6855;48.112;11.298;2022-11-11T03:40:47;3.20;;;2.13;;
13566;SDS011;6855;48.112;11.298;2022-11-11T03:43:16;7.73;;;2.80;;
13566;SDS011;6855;48.112;11.298;2022-11-11T03:45:44;3.30;;;2.20;;
13566;SDS011;6855;48.112;11.298;2022-11-11T03:48:13;2.80;;;1.87;;
13566;SDS011;6855;48.112;11.298;2022-11-11T03:50:40;3.87;;;1.83;;
13566;SDS011;6855;48.112;11.298;2022-11-11T03:53:08;4.50;;;2.30;;
13566;SDS011;6855;48.112;11.298;2022-11-11T03:55:35;3.60;;;2.33;;
13566;SDS011;6855;48.112;11.298;2022-11-11T03:58:02;3.60;;;2.17;;
13566;SDS011;6855;48.112;11.298;2022-11-11T04:00:29;4.33;;;2.30;;
13566;SDS011;6855;48.112;11.298;2022-11-11T04:03:03;4.17;;;2.53;;
13566;SDS011;6855;48.112;11.298;2022-11-11T04:05:50;3.53;;;1.97;;
13566;SDS011;6855;48.112;11.298;2022-11-11T04:08:35;2.63;;;1.93;;
13566;SDS011;6855;48.112;11.298;2022-11-11T04:11:21;3.50;;;1.80;;
13566;SDS011;6855;48.112;11.298;2022-11-11T04:13:50;4.10;;;2.27;;
13566;SDS011;6855;48.112;11.298;2022-11-11T04:16:36;5.30;;;2.70;;
13566;SDS011;6855;48.112;11.298;2022-11-11T04:19:03;3.10;;;2.40;;
13566;SDS011;6855;48.112;11.298;2022-11-11T04:21:49;2.87;;;2.23;;
13566;SDS011;6855;48.112;11.298;2022-11-11T04:24:16;5.63;;;2.67;;
13566;SDS011;6855;48.112;11.298;2022-11-11T04:27:02;4.93;;;2.80;;
13566;SDS011;6855;48.112;11.298;2022-11-11T04:29:30;3.63;;;3.13;;
13566;SDS011;6855;48.112;11.298;2022-11-11T04:31:57;3.70;;;2.90;;
13566;SDS011;6855;48.112;11.298;2022-11-11T04:34:42;10.70;;;2.63;;
13566;SDS011;6855;48.112;11.298;2022-11-11T04:37:11;4.37;;;2.70;;
13566;SDS011;6855;48.112;11.298;2022-11-11T04:39:38;4.50;;;2.40;;
13566;SDS011;6855;48.112;11.298;2022-11-11T04:42:23;3.33;;;2.40;;
13566;SDS011;6855;48.112;11.298;2022-11-11T04:44:50;4.00;;;2.13;;
13566;SDS011;6855;48.112;11.298;2022-11-11T04:47:35;3.10;;;2.60;;
13566;SDS011;6855;48.112;11.298;2022-11-11T04:50:02;3.43;;;2.17;;
13566;SDS011;6855;48.112;11.298;2022-11-11T04:52:31;5.90;;;2.33;;
13566;SDS011;6855;48.112;11.298;2022-11-11T04:54:58;3.23;;;2.47;;
13566;SDS011;6855;48.112;11.298;2022-11-11T04:57:43;5.23;;;2.60;;
13566;SDS011;6855;48.112;11.298;2022-11-11T05:00:11;3.57;;;2.33;;
13566;SDS011;6855;48.112;11.298;2022-11-11T05:02:39;3.33;;;2.17;;
13566;SDS011;6855;48.112;11.298;2022-11-11T05:05:24;3.47;;;2.43;;
13566;SDS011;6855;48.112;11.298;2022-11-11T05:07:53;3.17;;;2.40;;
13566;SDS011;6855;48.112;11.298;2022-11-11T05:10:38;3.67;;;2.30;;
13566;SDS011;6855;48.112;11.298;2022-11-11T05:13:05;4.00;;;2.90;;
13566;SDS011;6855;48.112;11.298;2022-11-11T05:15:50;3.63;;;2.20;;
13566;SDS011;6855;48.112;11.298;2022-11-11T05:18:35;4.30;;;2.40;;
13566;SDS011;6855;48.112;11.298;2022-11-11T05:21:21;3.73;;;2.50;;
13566;SDS011;6855;48.112;11.298;2022-11-11T05:23:57;5.33;;;2.33;;
13566;SDS011;6855;48.112;11.298;2022-11-11T05:26:42;3.57;;;2.67;;
13566;SDS011;6855;48.112;11.298;2022-11-11T05:29:09;3.27;;;2.40;;
13566;SDS011;6855;48.112;11.298;2022-11-11T05:31:36;5.20;;;2.77;;
13566;SDS011;6855;48.112;11.298;2022-11-11T05:34:04;6.17;;;3.00;;
13566;SDS011;6855;48.112;11.298;2022-11-11T05:36:31;6.40;;;2.43;;
13566;SDS011;6855;48.112;11.298;2022-11-11T05:39:09;3.17;;;2.43;;
13566;SDS011;6855;48.112;11.298;2022-11-11T05:41:36;4.97;;;2.93;;
13566;SDS011;6855;48.112;11.298;2022-11-11T05:44:04;4.80;;;2.93;;
13566;SDS011;6855;48.112;11.298;2022-11-11T05:46:31;4.50;;;2.90;;
13566;SDS011;6855;48.112;11.298;2022-11-11T05:48:58;8.30;;;3.47;;
13566;SDS011;6855;48.112;11.298;2022-11-11T05:51:40;5.10;;;3.60;;
13566;SDS011;6855;48.112;11.298;2022-11-11T05:54:09;4.20;;;3.63;;
13566;SDS011;6855;48.112;11.298;2022-11-11T05:56:36;9.53;;;4.23;;
13566;SDS011;6855;48.112;11.298;2022-11-11T05:59:04;4.43;;;3.20;;
13566;SDS011;6855;48.112;11.298;2022-11-11T06:01:31;5.87;;;3.70;;
13566;SDS011;6855;48.112;11.298;2022-11-11T06:03:58;6.73;;;3.67;;
13566;SDS011;6855;48.112;11.298;2022-11-11T06:06:25;10.77;;;5.27;;
13566;SDS011;6855;48.112;11.298;2022-11-11T06:08:52;9.37;;;4.40;;
13566;SDS011;6855;48.112;11.298;2022-11-11T06:11:21;7.87;;;4.20;;
13566;SDS011;6855;48.112;11.298;2022-11-11T06:13:48;6.83;;;4.13;;
13566;SDS011;6855;48.112;11.298;2022-11-11T06:16:16;6.30;;;4.10;;
13566;SDS011;6855;48.112;11.298;2022-11-11T06:18:43;8.30;;;3.83;;
13566;SDS011;6855;48.112;11.298;2022-11-11T06:21:13;11.87;;;4.07;;
13566;SDS011;6855;48.112;11.298;2022-11-11T06:23:44;5.97;;;3.80;;
13566;SDS011;6855;48.112;11.298;2022-11-11T06:26:11;7.37;;;3.73;;
13566;SDS011;6855;48.112;11.298;2022-11-11T06:28:39;7.40;;;3.87;;
13566;SDS011;6855;48.112;11.298;2022-11-11T06:31:07;8.10;;;4.20;;
13566;SDS011;6855;48.112;11.298;2022-11-11T06:33:34;7.63;;;4.30;;
13566;SDS011;6855;48.112;11.298;2022-11-11T06:36:01;5.70;;;3.63;;
13566;SDS011;6855;48.112;11.298;2022-11-11T06:38:29;23.83;;;3.83;;
13566;SDS011;6855;48.112;11.298;2022-11-11T06:40:56;5.30;;;3.23;;
13566;SDS011;6855;48.112;11.298;2022-11-11T06:43:23;7.73;;;3.10;;
13566;SDS011;6855;48.112;11.298;2022-11-11T06:45:52;8.50;;;3.90;;
13566;SDS011;6855;48.112;11.298;2022-11-11T06:48:20;4.73;;;2.87;;
13566;SDS011;6855;48.112;11.298;2022-11-11T06:50:48;5.60;;;3.67;;
13566;SDS011;6855;48.112;11.298;2022-11-11T06:53:16;4.67;;;3.60;;
13566;SDS011;6855;48.112;11.298;2022-11-11T06:55:43;6.70;;;3.67;;
13566;SDS011;6855;48.112;11.298;2022-11-11T06:58:12;7.17;;;3.83;;
13566;SDS011;6855;48.112;11.298;2022-11-11T07:00:40;9.43;;;3.57;;
13566;SDS011;6855;48.112;11.298;2022-11-11T07:03:10;13.80;;;3.93;;
13566;SDS011;6855;48.112;11.298;2022-11-11T07:05:37;11.97;;;3.50;;
13566;SDS011;6855;48.112;11.298;2022-11-11T07:08:05;4.80;;;3.93;;
13566;SDS011;6855;48.112;11.298;2022-11-11T07:10:33;5.13;;;3.60;;
13566;SDS011;6855;48.112;11.298;2022-11-11T07:13:02;3.50;;;2.73;;
13566;SDS011;6855;48.112;11.298;2022-11-11T07:15:29;3.10;;;2.70;;
13566;SDS011;6855;48.112;11.298;2022-11-11T07:17:56;3.83;;;2.70;;
13566;SDS011;6855;48.112;11.298;2022-11-11T07:20:25;11.73;;;3.13;;
13566;SDS011;6855;48.112;11.298;2022-11-11T07:22:52;5.60;;;2.90;;
13566;SDS011;6855;48.112;11.298;2022-11-11T07:25:19;7.93;;;2.90;;
13566;SDS011;6855;48.112;11.298;2022-11-11T07:27:46;5.70;;;2.53;;
13566;SDS011;6855;48.112;11.298;2022-11-11T07:30:13;3.70;;;2.70;;
13566;SDS011;6855;48.112;11.298;2022-11-11T07:32:43;4.10;;;3.00;;
13566;SDS011;6855;48.112;11.298;2022-11-11T07:35:10;8.10;;;2.90;;
13566;SDS011;6855;48.112;11.298;2022-11-11T07:37:40;10.97;;;3.87;;
13566;SDS011;6855;48.112;11.298;2022-11-11T07:40:08;6.80;;;3.90;;
13566;SDS011;6855;48.112;11.298;2022-11-11T07:42:36;12.10;;;3.77;;
13566;SDS011;6855;48.112;11.298;2022-11-11T07:45:03;6.33;;;4.57;;
13566;SDS011;6855;48.112;11.298;2022-11-11T07:47:31;7.97;;;4.07;;
13566;SDS011;6855;48.112;11.298;2022-11-11T07:49:58;10.80;;;3.90;;
13566;SDS011;6855;48.112;11.298;2022-11-11T07:52:26;15.83;;;3.77;;
13566;SDS011;6855;48.112;11.298;2022-11-11T07:54:54;6.00;;;3.60;;
13566;SDS011;6855;48.112;11.298;2022-11-11T07:57:22;10.10;;;3.90;;
13566;SDS011;6855;48.112;11.298;2022-11-11T07:59:49;8.10;;;4.20;;
13566;SDS011;6855;48.112;11.298;2022-11-11T08:02:16;10.27;;;4.37;;
13566;SDS011;6855;48.112;11.298;2022-11-11T08:04:43;10.93;;;4.20;;
13566;SDS011;6855;48.112;11.298;2022-11-11T08:07:12;9.30;;;4.20;;
13566;SDS011;6855;48.112;11.298;2022-11-11T08:09:39;14.93;;;4.70;;
13566;SDS011;6855;48.112;11.298;2022-11-11T08:12:08;5.87;;;3.10;;
13566;SDS011;6855;48.112;11.298;2022-11-11T08:14:53;4.50;;;2.83;;
13566;SDS011;6855;48.112;11.298;2022-11-11T08:17:20;8.37;;;3.17;;
13566;SDS011;6855;48.112;11.298;2022-11-11T08:19:48;9.93;;;3.50;;
13566;SDS011;6855;48.112;11.298;2022-11-11T08:22:15;6.03;;;3.00;;
13566;SDS011;6855;48.112;11.298;2022-11-11T08:24:42;10.53;;;3.13;;
13566;SDS011;6855;48.112;11.298;2022-11-11T08:27:10;11.27;;;3.47;;
13566;SDS011;6855;48.112;11.298;2022-11-11T08:29:37;5.83;;;3.07;;
13566;SDS011;6855;48.112;11.298;2022-11-11T08:32:05;7.80;;;3.10;;
13566;SDS011;6855;48.112;11.298;2022-11-11T08:34:32;10.37;;;3.20;;
13566;SDS011;6855;48.112;11.298;2022-11-11T08:36:59;3.57;;;3.27;;
13566;SDS011;6855;48.112;11.298;2022-11-11T08:39:26;8.60;;;3.07;;
13566;SDS011;6855;48.112;11.298;2022-11-11T08:41:53;3.90;;;2.90;;
13566;SDS011;6855;48.112;11.298;2022-11-11T08:44:22;3.87;;;3.10;;
13566;SDS011;6855;48.112;11.298;2022-11-11T08:46:49;3.03;;;2.40;;
13566;SDS011;6855;48.112;11.298;2022-11-11T08:49:16;6.90;;;2.23;;
13566;SDS011;6855;48.112;11.298;2022-11-11T08:51:43;3.80;;;2.37;;
13566;SDS011;6855;48.112;11.298;2022-11-11T08:54:10;8.43;;;2.83;;
13566;SDS011;6855;48.112;11.298;2022-11-11T08:56:38;4.60;;;3.27;;
13566;SDS011;6855;48.112;11.298;2022-11-11T08:59:05;8.87;;;3.27;;
13566;SDS011;6855;48.112;11.298;2022-11-11T09:01:35;11.77;;;4.00;;
13566;SDS011;6855;48.112;11.298;2022-11-11T09:04:03;10.30;;;3.10;;
13566;SDS011;6855;48.112;11.298;2022-11-11T09:06:30;6.93;;;2.80;;
13566;SDS011;6855;48.112;11.298;2022-11-11T09:08:57;5.63;;;3.50;;
13566;SDS011;6855;48.112;11.298;2022-11-11T09:11:24;15.20;;;2.53;;
13566;SDS011;6855;48.112;11.298;2022-11-11T09:13:52;9.17;;;3.33;;
13566;SDS011;6855;48.112;11.298;2022-11-11T09:16:19;5.87;;;2.80;;
13566;SDS011;6855;48.112;11.298;2022-11-11T09:18:48;8.93;;;2.70;;
13566;SDS011;6855;48.112;11.298;2022-11-11T09:21:15;14.87;;;2.40;;
13566;SDS011;6855;48.112;11.298;2022-11-11T09:23:42;6.90;;;2.90;;
13566;SDS011;6855;48.112;11.298;2022-11-11T09:26:09;10.03;;;2.80;;
13566;SDS011;6855;48.112;11.298;2022-11-11T09:28:36;7.20;;;2.60;;
13566;SDS011;6855;48.112;11.298;2022-11-11T09:31:04;3.40;;;2.03;;
13566;SDS011;6855;48.112;11.298;2022-11-11T09:33:31;6.50;;;2.30;;
13566;SDS011;6855;48.112;11.298;2022-11-11T09:36:02;10.53;;;2.50;;
13566;SDS011;6855;48.112;11.298;2022-11-11T09:38:29;7.13;;;2.37;;
13566;SDS011;6855;48.112;11.298;2022-11-11T09:41:03;3.20;;;2.07;;
13566;SDS011;6855;48.112;11.298;2022-11-11T09:43:34;3.47;;;2.23;;
13566;SDS011;6855;48.112;11.298;2022-11-11T09:46:06;1.73;;;1.63;;
13566;SDS011;6855;48.112;11.298;2022-11-11T09:48:41;7.00;;;2.57;;
13566;SDS011;6855;48.112;11.298;2022-11-11T09:51:15;7.77;;;2.17;;
13566;SDS011;6855;48.112;11.298;2022-11-11T09:53:45;2.33;;;1.83;;
13566;SDS011;6855;48.112;11.298;2022-11-11T09:56:14;3.10;;;1.60;;
13566;SDS011;6855;48.112;11.298;2022-11-11T09:58:44;3.57;;;2.20;;
13566;SDS011;6855;48.112;11.298;2022-11-11T10:01:13;5.87;;;1.70;;
13566;SDS011;6855;48.112;11.298;2022-11-11T10:03:43;10.70;;;2.23;;
13566;SDS011;6855;48.112;11.298;2022-11-11T10:06:14;2.53;;;1.80;;
13566;SDS011;6855;48.112;11.298;2022-11-11T10:08:45;14.30;;;1.30;;
13566;SDS011;6855;48.112;11.298;2022-11-11T10:11:15;2.47;;;1.50;;
13566;SDS011;6855;48.112;11.298;2022-11-11T10:13:44;2.60;;;1.73;;
13566;SDS011;6855;48.112;11.298;2022-11-11T10:16:14;2.17;;;1.40;;
13566;SDS011;6855;48.112;11.298;2022-11-11T10:18:48;4.37;;;1.67;;
13566;SDS011;6855;48.112;11.298;2022-11-11T10:21:22;9.73;;;2.00;;
13566;SDS011;6855;48.112;11.298;2022-11-11T10:23:51;4.60;;;1.43;;
13566;SDS011;6855;48.112;11.298;2022-11-11T10:26:23;3.60;;;1.30;;
13566;SDS011;6855;48.112;11.298;2022-11-11T10:28:53;1.57;;;1.47;;
13566;SDS011;6855;48.112;11.298;2022-11-11T10:31:21;4.27;;;2.03;;
13566;SDS011;6855;48.112;11.298;2022-11-11T10:33:51;1.70;;;1.30;;
13566;SDS011;6855;48.112;11.298;2022-11-11T10:36:19;1.33;;;1.20;;
13566;SDS011;6855;48.112;11.298;2022-11-11T10:38:48;3.10;;;1.20;;
13566;SDS011;6855;48.112;11.298;2022-11-11T10:41:18;2.10;;;1.10;;
13566;SDS011;6855;48.112;11.298;2022-11-11T10:43:46;2.93;;;1.30;;
13566;SDS011;6855;48.112;11.298;2022-11-11T10:46:14;1.70;;;1.33;;
13566;SDS011;6855;48.112;11.298;2022-11-11T10:48:44;2.70;;;1.30;;
13566;SDS011;6855;48.112;11.298;2022-11-11T10:51:14;1.77;;;1.53;;
13566;SDS011;6855;48.112;11.298;2022-11-11T10:53:42;1.90;;;1.60;;
13566;SDS011;6855;48.112;11.298;2022-11-11T10:56:14;2.70;;;1.80;;
13566;SDS011;6855;48.112;11.298;2022-11-11T10:58:45;3.53;;;1.40;;
13566;SDS011;6855;48.112;11.298;2022-11-11T11:01:15;4.77;;;1.47;;
13566;SDS011;6855;48.112;11.298;2022-11-11T11:03:46;6.47;;;1.47;;
13566;SDS011;6855;48.112;11.298;2022-11-11T11:06:15;3.50;;;1.40;;
13566;SDS011;6855;48.112;11.298;2022-11-11T11:08:45;1.87;;;1.50;;
13566;SDS011;6855;48.112;11.298;2022-11-11T11:11:14;4.80;;;1.30;;
13566;SDS011;6855;48.112;11.298;2022-11-11T11:13:45;1.33;;;1.13;;
13566;SDS011;6855;48.112;11.298;2022-11-11T11:16:15;2.50;;;1.27;;
13566;SDS011;6855;48.112;11.298;2022-11-11T11:18:43;1.87;;;1.50;;
13566;SDS011;6855;48.112;11.298;2022-11-11T11:21:10;1.80;;;1.20;;
13566;SDS011;6855;48.112;11.298;2022-11-11T11:23:38;2.10;;;1.17;;
13566;SDS011;6855;48.112;11.298;2022-11-11T11:26:06;4.70;;;1.57;;
13566;SDS011;6855;48.112;11.298;2022-11-11T11:28:33;3.00;;;1.40;;
13566;SDS011;6855;48.112;11.298;2022-11-11T11:31:03;4.10;;;1.33;;
13566;SDS011;6855;48.112;11.298;2022-11-11T11:36:14;1.63;;;1.10;;
13566;SDS011;6855;48.112;11.298;2022-11-11T11:38:42;1.63;;;1.23;;
13566;SDS011;6855;48.112;11.298;2022-11-11T11:41:11;1.83;;;1.43;;
13566;SDS011;6855;48.112;11.298;2022-11-11T11:43:39;1.03;;;0.93;;
13566;SDS011;6855;48.112;11.298;2022-11-11T11:46:15;1.57;;;1.37;;
13566;SDS011;6855;48.112;11.298;2022-11-11T11:48:48;1.30;;;1.17;;
13566;SDS011;6855;48.112;11.298;2022-11-11T11:51:25;4.33;;;2.90;;
13566;SDS011;6855;48.112;11.298;2022-11-11T11:54:10;2.10;;;1.30;;
13566;SDS011;6855;48.112;11.298;2022-11-11T11:56:39;1.67;;;1.43;;
13566;SDS011;6855;48.112;11.298;2022-11-11T11:59:10;2.53;;;1.43;;
13566;SDS011;6855;48.112;11.298;2022-11-11T12:01:43;2.47;;;1.03;;
13566;SDS011;6855;48.112;11.298;2022-11-11T12:04:21;1.80;;;1.47;;
13566;SDS011;6855;48.112;11.298;2022-11-11T12:06:56;1.30;;;1.20;;
13566;SDS011;6855;48.112;11.298;2022-11-11T12:09:28;6.00;;;1.33;;
13566;SDS011;6855;48.112;11.298;2022-11-11T12:11:58;1.53;;;1.20;;
13566;SDS011;6855;48.112;11.298;2022-11-11T12:14:42;1.40;;;1.10;;
13566;SDS011;6855;48.112;11.298;2022-11-11T12:17:17;1.83;;;1.27;;
13566;SDS011;6855;48.112;11.298;2022-11-11T12:19:51;2.37;;;1.10;;
13566;SDS011;6855;48.112;11.298;2022-11-11T12:22:24;2.93;;;1.17;;
13566;SDS011;6855;48.112;11.298;2022-11-11T12:24:54;4.10;;;1.30;;
13566;SDS011;6855;48.112;11.298;2022-11-11T12:27:29;1.80;;;1.50;;
13566;SDS011;6855;48.112;11.298;2022-11-11T12:30:02;3.87;;;1.30;;
13566;SDS011;6855;48.112;11.298;2022-11-11T12:32:33;2.90;;;1.40;;
13566;SDS011;6855;48.112;11.298;2022-11-11T12:35:12;1.53;;;1.33;;
13566;SDS011;6855;48.112;11.298;2022-11-11T12:37:43;2.40;;;1.27;;
13566;SDS011;6855;48.112;11.298;2022-11-11T12:40:15;3.10;;;1.30;;
13566;SDS011;6855;48.112;11.298;2022-11-11T12:42:50;3.13;;;1.33;;
13566;SDS011;6855;48.112;11.298;2022-11-11T12:45:20;1.63;;;1.53;;
13566;SDS011;6855;48.112;11.298;2022-11-11T12:47:54;3.40;;;1.10;;
13566;SDS011;6855;48.112;11.298;2022-11-11T12:50:23;1.50;;;1.40;;
13566;SDS011;6855;48.112;11.298;2022-11-11T12:52:57;2.07;;;1.40;;
13566;SDS011;6855;48.112;11.298;2022-11-11T12:55:29;2.50;;;1.47;;
13566;SDS011;6855;48.112;11.298;2022-11-11T12:58:07;1.70;;;1.33;;
13566;SDS011;6855;48.112;11.298;2022-11-11T13:00:38;1.47;;;1.37;;
13566;SDS011;6855;48.112;11.298;2022-11-11T13:03:20;1.43;;;1.27;;
13566;SDS011;6855;48.112;11.298;2022-11-11T13:05:51;2.83;;;1.40;;
13566;SDS011;6855;48.112;11.298;2022-11-11T13:08:32;2.47;;;1.80;;
13566;SDS011;6855;48.112;11.298;2022-11-11T13:11:06;2.60;;;2.17;;
13566;SDS011;6855;48.112;11.298;2022-11-11T13:13:41;2.80;;;1.50;;
13566;SDS011;6855;48.112;11.298;2022-11-11T13:16:13;1.97;;;1.60;;
13566;SDS011;6855;48.112;11.298;2022-11-11T13:18:44;3.43;;;1.60;;
13566;SDS011;6855;48.112;11.298;2022-11-11T13:21:14;2.73;;;1.97;;
13566;SDS011;6855;48.112;11.298;2022-11-11T13:23:42;2.13;;;1.97;;
13566;SDS011;6855;48.112;11.298;2022-11-11T13:26:15;5.17;;;2.10;;
13566;SDS011;6855;48.112;11.298;2022-11-11T13:28:48;3.13;;;1.80;;
13566;SDS011;6855;48.112;11.298;2022-11-11T13:31:18;3.17;;;1.57;;
13566;SDS011;6855;48.112;11.298;2022-11-11T13:33:50;1.90;;;1.60;;
13566;SDS011;6855;48.112;11.298;2022-11-11T13:36:20;2.10;;;1.60;;
13566;SDS011;6855;48.112;11.298;2022-11-11T13:38:49;1.73;;;1.40;;
13566;SDS011;6855;48.112;11.298;2022-11-11T13:41:19;1.70;;;1.53;;
13566;SDS011;6855;48.112;11.298;2022-11-11T13:43:48;2.03;;;1.80;;
13566;SDS011;6855;48.112;11.298;2022-11-11T13:46:28;2.40;;;1.90;;
13566;SDS011;6855;48.112;11.298;2022-11-11T13:48:57;2.73;;;2.00;;
13566;SDS011;6855;48.112;11.298;2022-11-11T13:51:25;2.03;;;1.90;;
13566;SDS011;6855;48.112;11.298;2022-11-11T13:53:55;3.73;;;1.93;;
13566;SDS011;6855;48.112;11.298;2022-11-11T13:56:24;2.13;;;1.67;;
13566;SDS011;6855;48.112;11.298;2022-11-11T13:58:53;2.50;;;2.00;;
13566;SDS011;6855;48.112;11.298;2022-11-11T14:01:21;4.83;;;2.93;;
13566;SDS011;6855;48.112;11.298;2022-11-11T14:04:00;3.07;;;2.40;;
13566;SDS011;6855;48.112;11.298;2022-11-11T14:09:10;2.93;;;2.47;;
13566;SDS011;6855;48.112;11.298;2022-11-11T14:11:37;3.80;;;2.13;;
13566;SDS011;6855;48.112;11.298;2022-11-11T14:16:58;2.30;;;2.10;;
13566;SDS011;6855;48.112;11.298;2022-11-11T14:19:30;4.10;;;2.63;;
13566;SDS011;6855;48.112;11.298;2022-11-11T14:21:58;3.30;;;2.53;;
13566;SDS011;6855;48.112;11.298;2022-11-11T14:24:30;5.80;;;3.90;;
13566;SDS011;6855;48.112;11.298;2022-11-11T14:26:59;11.30;;;6.13;;
13566;SDS011;6855;48.112;11.298;2022-11-11T14:29:29;15.17;;;7.40;;
13566;SDS011;6855;48.112;11.298;2022-11-11T14:32:21;9.70;;;5.80;;
13566;SDS011;6855;48.112;11.298;2022-11-11T14:34:59;4.27;;;3.60;;
13566;SDS011;6855;48.112;11.298;2022-11-11T14:37:34;6.50;;;3.37;;
13566;SDS011;6855;48.112;11.298;2022-11-11T14:40:08;9.30;;;3.40;;
13566;SDS011;6855;48.112;11.298;2022-11-11T14:42:45;6.70;;;3.50;;
13566;SDS011;6855;48.112;11.298;2022-11-11T14:48:01;4.37;;;3.03;;
13566;SDS011;6855;48.112;11.298;2022-11-11T14:50:42;3.23;;;2.80;;
13566;SDS011;6855;48.112;11.298;2022-11-11T14:53:11;5.10;;;3.20;;
13566;SDS011;6855;48.112;11.298;2022-11-11T14:55:40;6.73;;;4.00;;
13566;SDS011;6855;48.112;11.298;2022-11-11T14:58:09;5.90;;;4.60;;
13566;SDS011;6855;48.112;11.298;2022-11-11T15:00:44;7.27;;;3.93;;
13566;SDS011;6855;48.112;11.298;2022-11-11T15:03:14;4.40;;;3.63;;
13566;SDS011;6855;48.112;11.298;2022-11-11T15:05:46;9.33;;;3.93;;
13566;SDS011;6855;48.112;11.298;2022-11-11T15:08:16;26.47;;;5.60;;
13566;SDS011;6855;48.112;11.298;2022-11-11T15:11:00;45.13;;;6.53;;
13566;SDS011;6855;48.112;11.298;2022-11-11T15:16:21;38.73;;;6.63;;
13566;SDS011;6855;48.112;11.298;2022-11-11T15:21:35;4.97;;;3.57;;